Time;durP1;ratioP1;P1;durP2;ratioP2;P2;SDS_P1;SDS_P2;PMS_P1;PMS_P2;Temp;Humidity;BMP_temperature;BMP_pressure;BME280_temperature;BME280_humidity;BME280_pressure;Samples;Min_cycle;Max_cycle;Signal;HPM_P1;HPM_P2
2022/11/22 00:08:32;;;;;;;6.80;3.08;;;6.90;99.90;;;;;;20641766;28;20418;-42
2022/11/22 00:18:33;;;;;;;5.53;2.95;;;7.00;99.90;;;;;;20625251;28;20065;-42
2022/11/22 00:28:34;;;;;;;6.85;3.67;;;7.00;99.90;;;;;;20642711;28;20037;-42
2022/11/22 00:38:35;;;;;;;8.90;3.20;;;7.10;99.90;;;;;;20627375;28;20042;-43
2022/11/22 00:48:36;;;;;;;8.75;2.83;;;6.90;99.90;;;;;;20636041;28;20043;-42
2022/11/22 00:58:37;;;;;;;7.68;3.00;;;6.90;99.90;;;;;;20643451;28;20040;-43
2022/11/22 01:08:38;;;;;;;16.80;3.47;;;6.80;99.90;;;;;;20641626;28;20929;-42
2022/11/22 01:18:39;;;;;;;10.15;3.78;;;6.70;99.90;;;;;;20640742;28;20788;-42
2022/11/22 01:28:40;;;;;;;6.88;3.33;;;6.70;99.90;;;;;;20640285;28;20066;-42
2022/11/22 01:38:41;;;;;;;6.05;3.15;;;6.80;99.90;;;;;;20644503;28;20050;-42
2022/11/22 01:48:51;;;;;;;6.70;2.33;;;6.80;99.90;;;;;;20636816;28;20033;-42
2022/11/22 01:58:58;;;;;;;8.30;3.50;;;6.70;99.90;;;;;;20648674;28;20577;-42
2022/11/22 02:09:06;;;;;;;5.18;2.20;;;6.60;99.90;;;;;;20656712;28;20100;-43
2022/11/22 02:19:14;;;;;;;4.40;2.22;;;6.60;99.90;;;;;;20654292;28;20504;-42
2022/11/22 02:29:17;;;;;;;2.83;1.38;;;6.50;99.90;;;;;;20666886;28;20615;-43
2022/11/22 02:39:25;;;;;;;5.88;1.88;;;6.40;99.90;;;;;;20665575;28;20456;-42
2022/11/22 02:49:26;;;;;;;10.70;1.85;;;6.50;99.90;;;;;;20655621;28;20103;-41
2022/11/22 02:59:27;;;;;;;5.57;1.70;;;6.40;99.90;;;;;;20645635;28;20042;-42
2022/11/22 03:09:28;;;;;;;4.85;1.77;;;6.30;99.90;;;;;;20651561;28;20066;-42
2022/11/22 03:19:29;;;;;;;5.03;1.42;;;6.20;99.90;;;;;;20646269;28;20074;-42
2022/11/22 03:29:30;;;;;;;4.90;1.65;;;6.10;99.90;;;;;;20650031;28;20046;-43
2022/11/22 03:39:31;;;;;;;5.07;1.77;;;6.10;99.90;;;;;;20598103;28;20051;-41
2022/11/22 03:49:32;;;;;;;3.22;1.67;;;6.00;99.90;;;;;;20581149;28;20108;-41
2022/11/22 03:59:33;;;;;;;3.08;0.90;;;5.80;99.90;;;;;;20577778;28;20141;-43
2022/11/22 04:09:34;;;;;;;5.25;2.22;;;5.80;99.90;;;;;;20576521;28;20051;-43
2022/11/22 04:19:35;;;;;;;5.00;2.00;;;5.70;99.90;;;;;;20575619;28;20046;-43
2022/11/22 04:29:36;;;;;;;8.82;1.92;;;5.60;99.90;;;;;;20577187;28;20112;-42
2022/11/22 04:39:37;;;;;;;4.80;1.70;;;5.50;99.90;;;;;;20629355;28;20181;-42
2022/11/22 04:49:38;;;;;;;4.30;1.73;;;5.50;99.90;;;;;;20637528;28;20054;-43
2022/11/22 04:59:39;;;;;;;7.28;1.30;;;5.40;99.90;;;;;;20647762;28;20067;-43
2022/11/22 05:09:40;;;;;;;9.68;1.85;;;5.30;99.90;;;;;;20638729;28;20040;-42
2022/11/22 05:19:41;;;;;;;3.35;1.00;;;5.20;99.90;;;;;;20643996;28;20057;-43
2022/11/22 05:29:42;;;;;;;6.28;2.35;;;5.20;99.90;;;;;;20644428;28;20071;-43
2022/11/22 05:39:43;;;;;;;2.85;1.13;;;5.10;99.90;;;;;;20657358;28;20041;-42
2022/11/22 05:49:45;;;;;;;18.48;2.65;;;5.20;99.90;;;;;;20657488;28;20072;-43
2022/11/22 05:59:45;;;;;;;2.40;0.93;;;5.20;99.90;;;;;;20646162;28;20406;-43
2022/11/22 06:09:46;;;;;;;2.70;1.35;;;5.30;99.90;;;;;;20654380;28;20666;-42
2022/11/22 06:19:47;;;;;;;5.60;2.92;;;5.40;99.90;;;;;;20655637;28;20051;-43
2022/11/22 06:29:48;;;;;;;3.38;1.23;;;5.30;99.90;;;;;;20653998;28;20038;-43
2022/11/22 06:39:49;;;;;;;4.30;2.05;;;5.20;99.90;;;;;;20645996;28;20046;-43
2022/11/22 06:49:50;;;;;;;6.95;2.83;;;5.20;99.90;;;;;;20638531;28;20042;-41
2022/11/22 06:59:51;;;;;;;4.32;1.67;;;5.20;99.90;;;;;;20641063;28;21320;-42
2022/11/22 07:09:52;;;;;;;3.13;1.73;;;5.30;99.90;;;;;;20617812;28;20041;-43
2022/11/22 07:19:53;;;;;;;3.55;1.50;;;5.30;99.90;;;;;;20616139;28;20078;-42
2022/11/22 07:29:54;;;;;;;3.35;1.45;;;5.30;99.90;;;;;;20655216;28;20050;-43
2022/11/22 07:39:56;;;;;;;7.82;1.88;;;5.40;99.90;;;;;;20666464;28;20037;-41
2022/11/22 07:49:59;;;;;;;4.20;2.22;;;5.50;99.90;;;;;;20660612;28;20046;-43
2022/11/22 08:00:00;;;;;;;8.40;2.28;;;5.50;99.90;;;;;;20651395;28;20490;-42
2022/11/22 08:10:01;;;;;;;5.20;2.25;;;5.60;99.90;;;;;;20650796;28;20410;-44
2022/11/22 08:20:04;;;;;;;3.38;1.77;;;5.70;99.90;;;;;;20626207;28;20159;-43
2022/11/22 08:30:06;;;;;;;5.57;1.33;;;5.80;99.90;;;;;;20652104;28;20072;-42
2022/11/22 08:40:08;;;;;;;6.05;1.92;;;5.80;99.90;;;;;;20611745;28;20523;-41
2022/11/22 08:50:09;;;;;;;2.67;1.30;;;5.90;99.90;;;;;;20647427;28;20045;-43
2022/11/22 09:00:10;;;;;;;4.82;1.80;;;6.00;99.90;;;;;;20636781;28;20155;-43
2022/11/22 09:10:11;;;;;;;4.22;2.50;;;6.00;99.90;;;;;;20644721;28;20446;-42
2022/11/22 09:20:12;;;;;;;5.60;1.27;;;6.10;99.90;;;;;;20641347;28;20050;-43
2022/11/22 09:30:14;;;;;;;7.82;1.92;;;6.20;99.90;;;;;;20627412;28;20034;-42
2022/11/22 09:40:15;;;;;;;2.95;1.40;;;6.20;99.90;;;;;;20612721;28;20080;-43
2022/11/22 09:50:22;;;;;;;2.95;1.00;;;6.20;99.90;;;;;;20622004;28;20104;-42
2022/11/22 10:00:26;;;;;;;2.10;0.88;;;6.40;99.90;;;;;;20597888;28;20050;-42
2022/11/22 10:10:36;;;;;;;3.20;1.25;;;6.50;99.90;;;;;;20596335;28;20042;-43
2022/11/22 10:20:40;;;;;;;13.60;1.52;;;6.60;99.90;;;;;;20621536;28;20456;-42
2022/11/22 10:30:53;;;;;;;2.38;1.27;;;6.60;99.90;;;;;;20635860;28;20034;-43
2022/11/22 10:41:16;;;;;;;9.35;2.80;;;6.60;99.90;;;;;;20633715;28;20042;-43
2022/11/22 10:51:43;;;;;;;2.60;1.27;;;6.70;99.90;;;;;;20606570;28;20140;-42
2022/11/22 11:02:18;;;;;;;2.60;1.10;;;6.70;99.90;;;;;;20628911;28;21801;-43
2022/11/22 11:12:26;;;;;;;3.35;1.17;;;6.70;99.90;;;;;;20624686;28;20074;-42
2022/11/22 11:22:30;;;;;;;3.90;1.40;;;6.80;99.90;;;;;;20637863;28;20055;-43
2022/11/22 11:32:53;;;;;;;2.38;0.80;;;6.80;99.90;;;;;;20651302;28;20054;-43
2022/11/22 11:43:15;;;;;;;4.55;1.80;;;6.80;99.90;;;;;;20638698;28;20081;-44
2022/11/22 11:53:24;;;;;;;5.15;2.17;;;6.90;99.90;;;;;;20637087;28;20070;-43
2022/11/22 12:03:25;;;;;;;1.63;0.75;;;7.00;99.90;;;;;;20645902;28;20076;-45
2022/11/22 12:13:41;;;;;;;5.32;1.48;;;7.10;99.90;;;;;;20646924;28;20060;-43
2022/11/22 12:23:58;;;;;;;1.98;0.77;;;7.10;99.90;;;;;;20643873;28;21832;-44
2022/11/22 12:34:20;;;;;;;4.53;1.43;;;7.20;99.90;;;;;;20645042;28;20603;-44
2022/11/22 12:44:23;;;;;;;2.17;1.00;;;7.30;99.90;;;;;;20648032;28;20564;-43
2022/11/22 12:54:33;;;;;;;1.98;0.80;;;7.40;99.90;;;;;;20645824;28;20068;-44
2022/11/22 13:04:47;;;;;;;2.58;0.80;;;7.40;99.90;;;;;;20640560;28;20873;-44
2022/11/22 13:14:53;;;;;;;1.83;0.57;;;7.50;99.90;;;;;;20633986;28;20857;-43
2022/11/22 13:25:03;;;;;;;2.67;1.23;;;7.60;99.90;;;;;;20642374;28;20364;-44
2022/11/22 13:35:11;;;;;;;1.13;0.60;;;7.60;99.90;;;;;;20639202;28;20546;-45
2022/11/22 13:45:22;;;;;;;0.40;0.20;;;7.70;99.90;;;;;;20638031;28;20552;-43
2022/11/22 13:55:31;;;;;;;2.20;0.98;;;7.70;99.90;;;;;;20649887;28;20124;-44
2022/11/22 14:05:34;;;;;;;1.00;0.57;;;7.80;99.90;;;;;;20642765;28;20073;-44
2022/11/22 14:16:15;;;;;;;1.98;0.88;;;7.80;99.90;;;;;;20642295;28;20760;-44
2022/11/22 14:26:53;;;;;;;0.95;0.40;;;7.80;99.90;;;;;;20646278;28;20917;-44
2022/11/22 14:37:09;;;;;;;1.57;0.63;;;7.80;99.90;;;;;;20637316;28;20863;-45
2022/11/22 14:47:13;;;;;;;5.15;1.27;;;7.80;99.90;;;;;;20638556;28;20050;-44
2022/11/22 14:57:18;;;;;;;1.35;0.60;;;7.80;99.90;;;;;;20638153;28;20117;-45
2022/11/22 15:07:43;;;;;;;4.55;1.17;;;7.80;99.90;;;;;;20631672;28;20042;-45
2022/11/22 15:17:46;;;;;;;0.90;0.40;;;7.80;99.90;;;;;;20631698;28;21551;-44
2022/11/22 15:27:47;;;;;;;1.63;0.90;;;7.80;99.90;;;;;;20626438;28;20369;-45
2022/11/22 15:37:54;;;;;;;1.02;0.43;;;7.80;99.90;;;;;;20624874;28;20049;-44
2022/11/22 15:48:00;;;;;;;1.10;0.50;;;7.80;99.90;;;;;;20622576;28;20050;-43
2022/11/22 15:58:02;;;;;;;2.72;1.25;;;7.80;99.90;;;;;;20627931;28;20057;-44
2022/11/22 16:08:04;;;;;;;1.08;0.50;;;7.70;99.90;;;;;;20619023;28;20034;-44
2022/11/22 16:18:24;;;;;;;1.70;0.80;;;7.80;99.90;;;;;;20615131;28;20093;-43
2022/11/22 16:28:35;;;;;;;1.20;0.55;;;7.70;99.90;;;;;;20611934;28;20124;-44
2022/11/22 16:38:36;;;;;;;8.70;1.98;;;7.80;99.90;;;;;;20622531;28;20823;-43
2022/11/22 16:48:37;;;;;;;2.85;0.93;;;7.80;99.90;;;;;;20619272;28;20054;-43
2022/11/22 16:58:38;;;;;;;2.80;0.98;;;7.80;99.90;;;;;;20625787;28;20892;-44
2022/11/22 17:08:39;;;;;;;3.72;1.75;;;7.70;99.90;;;;;;20616019;28;20376;-44
2022/11/22 17:18:40;;;;;;;3.00;1.52;;;7.60;99.90;;;;;;20604194;28;20504;-44
2022/11/22 17:28:41;;;;;;;2.63;1.38;;;7.60;99.90;;;;;;20620959;28;20399;-43
2022/11/22 17:38:42;;;;;;;4.97;1.65;;;7.60;99.90;;;;;;20640512;28;20054;-44
2022/11/22 17:48:50;;;;;;;2.05;1.13;;;7.60;99.90;;;;;;20626511;28;20068;-44
2022/11/22 17:58:51;;;;;;;3.35;2.05;;;7.70;99.90;;;;;;20613646;28;20080;-44
2022/11/22 18:08:52;;;;;;;4.05;1.40;;;7.60;99.90;;;;;;20609662;28;20089;-43
2022/11/22 18:18:54;;;;;;;3.78;1.52;;;7.60;99.90;;;;;;20608138;28;20149;-44
2022/11/22 18:28:55;;;;;;;5.07;2.22;;;7.70;99.90;;;;;;20614277;28;20035;-44
2022/11/22 18:38:56;;;;;;;4.57;2.30;;;7.80;99.90;;;;;;20623443;28;20475;-43
2022/11/22 18:48:57;;;;;;;2.95;1.63;;;7.80;99.90;;;;;;20626626;28;20068;-44
2022/11/22 18:58:58;;;;;;;5.93;2.45;;;7.90;99.90;;;;;;20619237;28;20077;-44
2022/11/22 19:09:00;;;;;;;3.15;1.42;;;8.00;99.90;;;;;;20627656;28;20050;-43
2022/11/22 19:19:01;;;;;;;12.15;3.28;;;8.00;99.90;;;;;;20597877;28;20084;-44
2022/11/22 19:29:03;;;;;;;2.10;0.95;;;8.00;99.90;;;;;;20612896;28;20045;-43
2022/11/22 19:39:06;;;;;;;5.22;2.30;;;8.00;99.90;;;;;;20626702;28;20142;-43
2022/11/22 19:49:08;;;;;;;5.03;1.52;;;8.10;99.90;;;;;;20593161;28;20498;-43
2022/11/22 19:59:14;;;;;;;5.40;2.88;;;8.10;99.90;;;;;;20613151;28;20083;-44
2022/11/22 20:09:15;;;;;;;7.78;2.20;;;8.00;99.90;;;;;;20611177;28;20045;-44
2022/11/22 20:19:16;;;;;;;4.82;2.55;;;8.00;99.90;;;;;;20608055;28;20792;-44
2022/11/22 20:29:20;;;;;;;3.67;2.08;;;8.00;99.90;;;;;;20611992;28;22403;-44
2022/11/22 20:39:21;;;;;;;4.13;1.92;;;8.00;99.90;;;;;;20620641;28;20569;-43
2022/11/22 20:49:24;;;;;;;4.57;2.42;;;8.10;99.90;;;;;;20616964;28;20417;-43
2022/11/22 20:59:25;;;;;;;5.25;2.63;;;8.10;99.90;;;;;;20606392;28;20042;-44
2022/11/22 21:09:26;;;;;;;6.55;2.75;;;8.20;99.90;;;;;;20616587;28;20085;-44
2022/11/22 21:19:27;;;;;;;4.05;2.10;;;8.10;99.90;;;;;;20636563;28;20069;-44
2022/11/22 21:29:29;;;;;;;7.57;2.90;;;8.20;99.90;;;;;;20638557;28;20077;-44
2022/11/22 21:39:30;;;;;;;8.15;3.20;;;8.10;99.90;;;;;;20586533;28;20503;-43
2022/11/22 21:49:31;;;;;;;8.25;3.78;;;8.20;99.90;;;;;;20562566;28;20704;-44
2022/11/22 21:59:32;;;;;;;5.32;2.63;;;8.20;99.90;;;;;;20570270;28;20038;-43
2022/11/22 22:09:33;;;;;;;6.10;2.75;;;8.30;99.90;;;;;;20567968;28;20042;-44
2022/11/22 22:19:38;;;;;;;5.38;2.25;;;8.30;99.90;;;;;;20577680;28;21793;-43
2022/11/22 22:29:39;;;;;;;8.07;3.70;;;8.40;99.90;;;;;;20570576;28;20856;-44
2022/11/22 22:39:41;;;;;;;7.97;3.65;;;8.40;99.90;;;;;;20625244;28;20060;-44
2022/11/22 22:49:42;;;;;;;13.05;2.90;;;8.50;99.90;;;;;;20631637;28;20034;-44
2022/11/22 22:59:43;;;;;;;8.00;2.90;;;8.50;99.90;;;;;;20639360;28;20145;-44
2022/11/22 23:09:44;;;;;;;6.93;3.80;;;8.50;99.90;;;;;;20641768;28;20054;-44
2022/11/22 23:19:45;;;;;;;39.70;5.35;;;8.50;99.90;;;;;;20648096;28;20065;-44
2022/11/22 23:29:46;;;;;;;8.55;4.45;;;8.50;99.90;;;;;;20650825;28;20124;-44
2022/11/22 23:39:47;;;;;;;8.45;5.50;;;8.50;99.90;;;;;;20636575;28;20042;-43
2022/11/22 23:49:48;;;;;;;9.45;4.07;;;8.50;99.90;;;;;;20635351;28;20069;-43
2022/11/22 23:59:49;;;;;;;7.15;3.72;;;8.50;99.90;;;;;;20643766;28;20057;-44
